createdAt,value
2019-01-23T00:00:51.496Z,5.60
2019-01-23T00:03:46.199Z,5.77
2019-01-23T00:06:47.230Z,5.50
2019-01-23T00:09:40.603Z,6.17
2019-01-23T00:12:41.764Z,5.90
2019-01-23T00:15:35.838Z,5.70
2019-01-23T00:18:36.609Z,5.70
2019-01-23T00:21:32.220Z,5.13
2019-01-23T00:24:32.828Z,5.70
2019-01-23T00:27:28.962Z,5.50
2019-01-23T00:30:30.043Z,5.33
2019-01-23T00:33:24.299Z,5.40
2019-01-23T00:36:25.771Z,4.73
2019-01-23T00:39:20.119Z,5.27
2019-01-23T00:42:21.491Z,5.07
2019-01-23T00:45:16.879Z,5.80
2019-01-23T00:48:18.551Z,5.50
2019-01-23T00:51:12.656Z,4.70
2019-01-23T00:54:13.417Z,5.07
2019-01-23T00:57:08.013Z,5.50
2019-01-23T01:00:11.939Z,5.37
2019-01-23T01:03:05.551Z,5.33
2019-01-23T01:06:06.599Z,4.77
2019-01-23T01:09:00.566Z,5.43
2019-01-23T01:12:02.003Z,5.33
2019-01-23T01:15:02.805Z,5.00
2019-01-23T01:17:57.336Z,5.47
2019-01-23T01:20:51.058Z,5.20
2019-01-23T01:23:51.343Z,5.07
2019-01-23T01:26:58.317Z,6.17
2019-01-23T01:29:58.976Z,5.23
2019-01-23T01:32:52.195Z,5.40
2019-01-23T01:35:53.730Z,5.57
2019-01-23T01:38:48.475Z,5.03
2019-01-23T01:41:49.965Z,4.70
2019-01-23T01:44:43.513Z,5.30
2019-01-23T01:47:44.996Z,5.10
2019-01-23T01:50:38.937Z,4.67
2019-01-23T01:53:40.388Z,4.87
2019-01-23T01:56:33.997Z,5.10
2019-01-23T01:59:35.037Z,5.20
2019-01-23T02:02:29.766Z,4.97
2019-01-23T02:05:31.451Z,5.17
2019-01-23T02:08:24.925Z,4.80
2019-01-23T02:11:25.922Z,5.10
2019-01-23T02:14:20.295Z,4.87
2019-01-23T02:17:21.131Z,4.87
2019-01-23T02:20:17.649Z,4.60
2019-01-23T02:23:19.297Z,4.90
2019-01-23T02:26:13.847Z,5.07
2019-01-23T02:29:14.617Z,5.17
2019-01-23T02:32:08.534Z,4.97
2019-01-23T02:35:10.399Z,5.20
2019-01-23T02:38:04.286Z,4.93
2019-01-23T02:41:05.940Z,4.87
2019-01-23T02:44:00.279Z,4.63
2019-01-23T02:47:01.923Z,4.40
2019-01-23T02:49:56.101Z,5.03
2019-01-23T02:52:57.863Z,4.87
2019-01-23T02:55:52.201Z,5.03
2019-01-23T02:58:53.404Z,4.83
2019-01-23T03:01:47.990Z,4.83
2019-01-23T03:04:49.382Z,4.77
2019-01-23T03:07:43.280Z,4.93
2019-01-23T03:10:44.287Z,4.43
2019-01-23T03:13:38.350Z,4.60
2019-01-23T03:16:39.841Z,4.67
2019-01-23T03:19:40.655Z,4.50
2019-01-23T03:22:35.251Z,4.50
2019-01-23T03:25:29.141Z,4.47
2019-01-23T03:28:30.106Z,4.47
2019-01-23T03:31:24.178Z,4.03
2019-01-23T03:34:25.337Z,4.40
2019-01-23T03:37:32.410Z,4.80
2019-01-23T03:40:33.427Z,4.30
2019-01-23T03:43:26.779Z,4.47
2019-01-23T03:46:28.209Z,4.37
2019-01-23T03:49:21.975Z,4.37
2019-01-23T03:52:22.767Z,4.20
2019-01-23T03:55:17.663Z,4.47
2019-01-23T03:58:19.441Z,4.23
2019-01-23T04:01:13.820Z,3.80
2019-01-23T04:04:15.269Z,4.70
2019-01-23T04:07:09.125Z,4.60
2019-01-23T04:10:11.171Z,4.37
2019-01-23T04:13:04.652Z,4.00
2019-01-23T04:16:05.484Z,4.40
2019-01-23T04:18:59.988Z,4.47
2019-01-23T04:22:01.606Z,3.97
2019-01-23T04:24:55.625Z,3.90
2019-01-23T04:27:57.177Z,4.50
2019-01-23T04:30:51.310Z,3.73
2019-01-23T04:33:52.723Z,4.47
2019-01-23T04:36:45.993Z,4.60
2019-01-23T04:39:47.857Z,3.90
2019-01-23T04:42:42.136Z,4.13
2019-01-23T04:45:43.265Z,3.70
2019-01-23T04:48:37.487Z,3.80
2019-01-23T04:51:40.159Z,3.87
2019-01-23T04:54:33.681Z,4.00
2019-01-23T04:57:35.315Z,3.63
2019-01-23T05:00:30.871Z,4.00
2019-01-23T05:03:32.121Z,3.97
2019-01-23T05:06:25.767Z,3.90
2019-01-23T05:09:27.092Z,3.80
2019-01-23T05:12:20.737Z,3.70
2019-01-23T05:15:21.749Z,3.40
2019-01-23T05:18:15.861Z,3.87
2019-01-23T05:21:17.509Z,3.70
2019-01-23T05:24:27.708Z,3.93
2019-01-23T05:27:29.079Z,3.63
2019-01-23T05:30:24.516Z,3.53
2019-01-23T05:33:24.275Z,3.47
2019-01-23T05:36:18.835Z,3.47
2019-01-23T05:39:20.011Z,3.20
2019-01-23T05:42:14.515Z,3.30
2019-01-23T05:45:17.017Z,3.30
2019-01-23T05:48:14.271Z,3.33
2019-01-23T05:51:14.645Z,3.27
2019-01-23T05:54:08.157Z,3.57
2019-01-23T05:57:09.123Z,3.37
2019-01-23T06:00:03.059Z,3.37
2019-01-23T06:03:04.018Z,2.83
2019-01-23T06:05:57.785Z,3.10
2019-01-23T06:08:58.554Z,3.30
2019-01-23T06:11:52.323Z,3.47
2019-01-23T06:14:53.677Z,3.63
2019-01-23T06:17:48.208Z,3.43
2019-01-23T06:20:51.567Z,3.10
2019-01-23T06:23:44.915Z,3.03
2019-01-23T06:26:46.693Z,3.27
2019-01-23T06:29:46.850Z,3.10
2019-01-23T06:32:41.139Z,2.90
2019-01-23T06:35:34.941Z,2.83
2019-01-23T06:38:35.604Z,2.90
2019-01-23T06:41:30.282Z,3.03
2019-01-23T06:44:31.644Z,3.20
2019-01-23T06:47:38.382Z,2.77
2019-01-23T06:50:39.334Z,2.70
2019-01-23T06:53:33.627Z,2.57
2019-01-23T06:56:34.824Z,2.70
2019-01-23T06:59:28.231Z,2.50
2019-01-23T07:02:30.134Z,2.70
2019-01-23T07:05:24.056Z,2.50
2019-01-23T07:08:25.502Z,2.50
2019-01-23T07:11:20.026Z,2.23
2019-01-23T07:14:20.926Z,2.20
2019-01-23T07:17:14.564Z,2.03
2019-01-23T07:20:16.818Z,2.20
2019-01-23T07:23:11.122Z,2.30
2019-01-23T07:26:12.520Z,1.83
2019-01-23T07:29:06.661Z,2.40
2019-01-23T07:32:07.780Z,2.03
2019-01-23T07:35:01.363Z,2.13
2019-01-23T07:38:03.212Z,1.87
2019-01-23T07:40:59.387Z,2.20
2019-01-23T07:44:01.734Z,2.23
2019-01-23T07:46:55.338Z,2.13
2019-01-23T07:49:57.017Z,2.07
2019-01-23T07:52:51.544Z,2.00
2019-01-23T07:55:53.030Z,2.13
2019-01-23T07:58:47.527Z,2.00
2019-01-23T08:01:48.104Z,1.87
2019-01-23T08:04:41.752Z,1.63
2019-01-23T08:07:42.700Z,1.93
2019-01-23T08:10:36.007Z,1.70
2019-01-23T08:13:37.619Z,1.70
2019-01-23T08:16:31.198Z,2.13
2019-01-23T08:19:32.185Z,1.63
2019-01-23T08:22:26.524Z,1.60
2019-01-23T08:25:27.926Z,2.03
2019-01-23T08:28:22.111Z,1.60
2019-01-23T08:31:23.552Z,1.60
2019-01-23T08:34:31.544Z,1.70
2019-01-23T08:37:31.913Z,1.80
2019-01-23T08:40:25.854Z,1.80
2019-01-23T08:43:26.759Z,1.70
2019-01-23T08:46:21.230Z,1.77
2019-01-23T08:49:22.974Z,1.90
2019-01-23T08:52:16.652Z,1.70
2019-01-23T08:55:17.610Z,1.80
2019-01-23T08:58:11.340Z,1.90
2019-01-23T09:01:14.770Z,1.67
2019-01-23T09:04:09.620Z,1.90
2019-01-23T09:07:11.064Z,1.90
2019-01-23T09:10:04.593Z,1.73
2019-01-23T09:13:05.069Z,1.80
2019-01-23T09:15:58.850Z,1.70
2019-01-23T09:19:00.023Z,1.67
2019-01-23T09:21:54.520Z,1.73
2019-01-23T09:24:56.282Z,1.80
2019-01-23T09:27:49.923Z,2.10
2019-01-23T09:30:54.412Z,1.80
2019-01-23T09:33:56.257Z,1.80
2019-01-23T09:37:06.162Z,1.63
2019-01-23T09:40:07.775Z,1.80
2019-01-23T09:43:13.414Z,1.77
2019-01-23T09:46:12.131Z,1.83
2019-01-23T09:49:15.149Z,1.90
2019-01-23T09:52:25.510Z,2.00
2019-01-23T09:55:26.343Z,1.70
2019-01-23T09:58:20.413Z,1.73
2019-01-23T10:01:21.893Z,1.90
2019-01-23T10:04:15.839Z,1.60
2019-01-23T10:07:17.182Z,1.77
2019-01-23T10:10:12.519Z,1.90
2019-01-23T10:13:16.256Z,2.00
2019-01-23T10:16:10.084Z,2.00
2019-01-23T10:19:11.503Z,1.70
2019-01-23T10:22:05.928Z,1.83
2019-01-23T10:25:06.829Z,1.50
2019-01-23T10:28:02.092Z,1.40
2019-01-23T10:31:06.537Z,1.70
2019-01-23T10:33:57.761Z,1.77
2019-01-23T10:37:01.415Z,1.67
2019-01-23T10:39:56.143Z,1.50
2019-01-23T10:42:57.051Z,1.60
2019-01-23T10:45:50.905Z,1.50
2019-01-23T10:48:52.839Z,1.70
2019-01-23T10:51:46.380Z,1.40
2019-01-23T10:54:47.753Z,1.90
2019-01-23T10:57:42.210Z,1.50
2019-01-23T11:00:43.749Z,1.70
2019-01-23T11:03:37.428Z,1.73
2019-01-23T11:06:39.317Z,1.90
2019-01-23T11:09:33.635Z,1.90
2019-01-23T11:12:34.706Z,1.73
2019-01-23T11:15:30.159Z,1.67
2019-01-23T11:18:31.825Z,1.63
2019-01-23T11:21:26.214Z,1.87
2019-01-23T11:24:28.035Z,1.67
2019-01-23T11:27:22.546Z,1.60
2019-01-23T11:30:27.741Z,1.73
2019-01-23T11:33:22.411Z,1.70
2019-01-23T11:36:23.871Z,1.97
2019-01-23T11:39:24.094Z,1.90
2019-01-23T11:42:18.275Z,1.97
2019-01-23T11:45:13.021Z,1.87
2019-01-23T11:48:13.323Z,1.90
2019-01-23T11:51:20.436Z,1.80
2019-01-23T11:54:21.874Z,1.77
2019-01-23T11:57:16.978Z,1.80
2019-01-23T12:00:23.663Z,1.73
2019-01-23T12:03:20.972Z,1.60
2019-01-23T12:06:20.718Z,1.77
2019-01-23T12:09:15.534Z,1.80
2019-01-23T12:12:17.175Z,1.60
2019-01-23T12:15:12.808Z,1.80
2019-01-23T12:18:14.006Z,1.70
2019-01-23T12:21:07.497Z,2.00
2019-01-23T12:24:08.553Z,2.00
2019-01-23T12:27:01.816Z,1.87
2019-01-23T12:30:03.787Z,2.03
2019-01-23T12:32:58.182Z,1.80
2019-01-23T12:35:59.876Z,1.97
2019-01-23T12:38:53.291Z,2.00
2019-01-23T12:41:54.955Z,2.00
2019-01-23T12:44:52.272Z,1.90
2019-01-23T12:47:53.989Z,2.20
2019-01-23T12:50:48.265Z,2.50
2019-01-23T12:53:49.595Z,2.10
2019-01-23T12:56:44.040Z,2.30
2019-01-23T12:59:45.657Z,1.90
2019-01-23T13:02:39.861Z,2.13
2019-01-23T13:05:41.190Z,2.20
2019-01-23T13:08:34.651Z,2.60
2019-01-23T13:11:35.133Z,2.10
2019-01-23T13:14:29.407Z,2.30
2019-01-23T13:17:31.910Z,2.70
2019-01-23T13:20:30.365Z,2.27
2019-01-23T13:23:31.429Z,2.20
2019-01-23T13:26:25.146Z,2.70
2019-01-23T13:29:26.883Z,2.27
2019-01-23T13:32:22.296Z,2.60
2019-01-23T13:35:25.466Z,2.50
2019-01-23T13:38:20.340Z,2.17
2019-01-23T13:41:20.858Z,2.50
2019-01-23T13:44:29.041Z,3.00
2019-01-23T13:47:32.096Z,2.30
2019-01-23T13:50:25.970Z,2.40
2019-01-23T13:53:28.646Z,2.40
2019-01-23T13:56:22.244Z,2.63
2019-01-23T13:59:23.712Z,3.00
2019-01-23T14:02:17.269Z,2.80
2019-01-23T14:05:18.631Z,2.60
2019-01-23T14:08:13.097Z,2.53
2019-01-23T14:11:14.254Z,2.47
2019-01-23T14:14:08.746Z,2.53
2019-01-23T14:17:10.305Z,2.77
2019-01-23T14:20:04.758Z,2.73
2019-01-23T14:23:06.002Z,2.53
2019-01-23T14:26:02.522Z,2.80
2019-01-23T14:29:03.326Z,2.40
2019-01-23T14:32:03.044Z,2.73
2019-01-23T14:34:59.896Z,2.60
2019-01-23T14:38:00.612Z,2.57
2019-01-23T14:40:58.280Z,2.90
2019-01-23T14:43:52.539Z,2.60
2019-01-23T14:46:53.895Z,2.50
2019-01-23T14:49:47.469Z,2.60
2019-01-23T14:52:48.334Z,2.60
2019-01-23T14:55:42.494Z,2.70
2019-01-23T14:58:43.350Z,2.50
2019-01-23T15:01:37.939Z,2.53
2019-01-23T15:04:40.606Z,2.47
2019-01-23T15:07:34.249Z,2.70
2019-01-23T15:10:38.773Z,2.33
2019-01-23T15:13:33.194Z,2.50
2019-01-23T15:16:34.351Z,2.30
2019-01-23T15:19:28.300Z,2.00
2019-01-23T15:22:29.709Z,2.60
2019-01-23T15:25:24.082Z,2.40
2019-01-23T15:28:25.951Z,2.20
2019-01-23T15:31:19.952Z,2.43
2019-01-23T15:34:20.609Z,2.47
2019-01-23T15:37:14.888Z,2.50
2019-01-23T15:40:17.489Z,2.40
2019-01-23T15:43:11.156Z,2.30
2019-01-23T15:46:12.657Z,2.20
2019-01-23T15:49:13.702Z,2.13
2019-01-23T15:52:08.072Z,2.30
2019-01-23T15:55:02.484Z,2.43
2019-01-23T15:58:02.744Z,2.07
2019-01-23T16:01:03.433Z,2.60
2019-01-23T16:03:57.048Z,2.00
2019-01-23T16:06:51.104Z,2.20
2019-01-23T16:09:51.327Z,2.03
2019-01-23T16:12:45.110Z,2.20
2019-01-23T16:15:46.259Z,2.27
2019-01-23T16:18:40.329Z,2.50
2019-01-23T16:21:45.730Z,2.40
2019-01-23T16:24:43.467Z,2.50
2019-01-23T16:27:37.118Z,2.83
2019-01-23T16:30:35.324Z,2.43
2019-01-23T16:33:35.809Z,2.40
2019-01-23T16:36:29.567Z,2.40
2019-01-23T16:39:30.306Z,2.50
2019-01-23T16:42:31.787Z,2.33
2019-01-23T16:45:25.850Z,2.73
2019-01-23T16:48:20.175Z,2.47
2019-01-23T16:51:27.726Z,2.80
2019-01-23T16:54:21.644Z,2.50
2019-01-23T16:57:22.605Z,2.40
2019-01-23T17:00:30.785Z,2.90
2019-01-23T17:03:32.071Z,2.50
2019-01-23T17:06:29.254Z,2.20
2019-01-23T17:09:30.503Z,2.07
2019-01-23T17:12:25.123Z,2.73
2019-01-23T17:15:26.787Z,2.53
2019-01-23T17:18:21.267Z,2.47
2019-01-23T17:21:22.085Z,2.20
2019-01-23T17:24:19.406Z,2.67
2019-01-23T17:27:20.773Z,2.10
2019-01-23T17:30:16.518Z,2.47
2019-01-23T17:33:18.177Z,2.50
2019-01-23T17:36:12.295Z,2.60
2019-01-23T17:39:14.447Z,2.40
2019-01-23T17:42:08.259Z,2.40
2019-01-23T17:45:08.788Z,2.33
2019-01-23T17:48:02.955Z,2.37
2019-01-23T17:51:05.412Z,2.20
2019-01-23T17:54:06.063Z,1.93
2019-01-23T17:57:00.181Z,2.33
2019-01-23T17:59:54.177Z,2.17
2019-01-23T18:02:54.532Z,1.60
2019-01-23T18:06:01.615Z,2.77
2019-01-23T18:09:03.406Z,2.40
2019-01-23T18:11:58.373Z,2.00
2019-01-23T18:14:59.551Z,1.80
2019-01-23T18:17:54.026Z,2.10
2019-01-23T18:20:57.327Z,2.03
2019-01-23T18:23:51.336Z,2.10
2019-01-23T18:26:52.481Z,2.20
2019-01-23T18:29:46.807Z,2.37
2019-01-23T18:32:47.400Z,2.30
2019-01-23T18:35:42.819Z,2.40
2019-01-23T18:38:45.104Z,2.20
2019-01-23T18:41:47.045Z,2.20
2019-01-23T18:44:49.517Z,2.23
2019-01-23T18:47:47.813Z,2.33
2019-01-23T18:51:07.197Z,2.33
2019-01-23T18:54:02.047Z,2.30
2019-01-23T18:57:03.413Z,2.50
2019-01-23T19:00:01.026Z,2.27
2019-01-23T19:03:07.017Z,1.90
2019-01-23T19:06:05.485Z,2.40
2019-01-23T19:09:06.781Z,2.40
2019-01-23T19:12:01.370Z,2.63
2019-01-23T19:15:02.194Z,2.17
2019-01-23T19:17:55.652Z,2.30
2019-01-23T19:20:56.201Z,2.40
2019-01-23T19:23:51.066Z,2.60
2019-01-23T19:26:52.180Z,2.60
2019-01-23T19:29:46.090Z,2.53
2019-01-23T19:32:48.398Z,2.70
2019-01-23T19:35:42.747Z,2.47
2019-01-23T19:38:44.995Z,2.60
2019-01-23T19:41:38.536Z,2.87
2019-01-23T19:44:39.310Z,2.50
2019-01-23T19:47:32.928Z,3.30
2019-01-23T19:50:33.734Z,2.60
2019-01-23T19:53:27.719Z,2.90
2019-01-23T19:56:29.275Z,2.73
2019-01-23T19:59:30.002Z,2.80
2019-01-23T20:02:24.862Z,2.70
2019-01-23T20:05:22.862Z,2.40
2019-01-23T20:08:23.924Z,2.90
2019-01-23T20:11:30.894Z,2.50
2019-01-23T20:14:31.931Z,2.43
2019-01-23T20:17:26.394Z,2.33
2019-01-23T20:20:28.093Z,2.60
2019-01-23T20:23:21.684Z,2.50
2019-01-23T20:26:21.670Z,2.67
2019-01-23T20:29:15.122Z,2.93
2019-01-23T20:32:32.190Z,2.70
2019-01-23T20:35:26.017Z,2.80
2019-01-23T20:38:26.774Z,2.53
2019-01-23T20:41:27.561Z,2.93
2019-01-23T20:44:22.067Z,3.20
2019-01-23T20:47:16.250Z,2.87
2019-01-23T20:50:18.465Z,2.80
2019-01-23T20:53:12.664Z,3.13
2019-01-23T20:56:14.006Z,2.70
2019-01-23T20:59:21.422Z,2.93
2019-01-23T21:02:22.742Z,2.53
2019-01-23T21:05:17.284Z,2.77
2019-01-23T21:08:18.228Z,3.03
2019-01-23T21:11:11.972Z,2.50
2019-01-23T21:14:16.270Z,3.07
2019-01-23T21:17:10.144Z,2.57
2019-01-23T21:20:10.569Z,2.90
2019-01-23T21:23:04.672Z,3.17
2019-01-23T21:26:06.128Z,3.00
2019-01-23T21:29:00.415Z,3.10
2019-01-23T21:32:01.272Z,2.93
2019-01-23T21:34:55.585Z,2.80
2019-01-23T21:37:57.060Z,3.00
2019-01-23T21:40:52.982Z,2.80
2019-01-23T21:43:54.200Z,2.80
2019-01-23T21:46:48.565Z,2.87
2019-01-23T21:49:50.044Z,3.10
2019-01-23T21:52:43.394Z,2.90
2019-01-23T21:55:44.559Z,2.80
2019-01-23T21:58:38.817Z,2.97
2019-01-23T22:01:39.759Z,3.30
2019-01-23T22:04:48.885Z,2.83
2019-01-23T22:07:49.808Z,2.80
2019-01-23T22:10:43.599Z,3.10
2019-01-23T22:13:45.313Z,2.83
2019-01-23T22:16:38.869Z,3.30
2019-01-23T22:19:39.024Z,3.10
2019-01-23T22:22:33.838Z,2.90
2019-01-23T22:25:35.139Z,2.80
2019-01-23T22:28:29.044Z,3.27
2019-01-23T22:31:29.816Z,3.20
2019-01-23T22:34:23.081Z,2.80
2019-01-23T22:37:24.157Z,3.50
2019-01-23T22:40:19.553Z,3.23
2019-01-23T22:43:21.165Z,3.13
2019-01-23T22:46:14.858Z,3.10
2019-01-23T22:49:16.449Z,3.40
2019-01-23T22:52:10.150Z,3.30
2019-01-23T22:55:12.417Z,3.27
2019-01-23T22:58:06.761Z,3.00
2019-01-23T23:01:18.693Z,3.20
2019-01-23T23:04:12.986Z,3.50
2019-01-23T23:07:15.056Z,3.57
2019-01-23T23:10:08.739Z,3.17
2019-01-23T23:13:09.471Z,3.40
2019-01-23T23:16:03.179Z,3.40
2019-01-23T23:19:10.017Z,3.30
2019-01-23T23:22:04.369Z,3.50
2019-01-23T23:25:05.654Z,3.40
2019-01-23T23:27:59.551Z,3.53
2019-01-23T23:31:00.562Z,3.23
2019-01-23T23:34:01.789Z,3.10
2019-01-23T23:36:55.625Z,3.73
2019-01-23T23:39:49.345Z,3.50
2019-01-23T23:42:52.661Z,3.20
2019-01-23T23:45:46.563Z,3.30
2019-01-23T23:48:47.551Z,3.10
2019-01-23T23:51:55.046Z,3.57
2019-01-23T23:54:56.883Z,2.97
2019-01-23T23:57:50.349Z,3.50
